Aérodrome :
LOGIN :

S'inscrire | Disclaimer

   EN    FR    IT 

 










Légende :    VFR   VFR Marginal   IFR   IFR Intensif   IFR Très Intensif
Visi : 
Plafond : 
>= 8 km
>= 3000ft
5 à 8 km
1000 à 3000 ft
1500m à 5 km
500 à 1000 ft
800 à 1500m
200 à 500 ft
< 800m
< 200 ft
Symboles :   Orages  Brouillard  Fortes neiges  Fortes précipitations  Vent > 20 kt
SIGMETs :   Divers  Orages  Givrage  Turbulence  Onde Orograph.  Cendres Volcan.






- Altitude de l'aérodrome : 308 ft


ESCF - Malmen AB

DERNIER METAR :
  • 181750Z AUTO 12004KT 080V160 7000 BR OVC002/// 10/10 Q1005

METARs EXPIRÉS :
  • 181720Z AUTO 11005KT 080V140 2200 BR OVC002/// 10/10 Q1005
  • 181650Z AUTO 11006KT 080V140 2400 BR OVC002/// 10/09 Q1005
  • 181620Z AUTO 10008KT 5000 -SHRA BR OVC003/// 10/09 Q1005
  • 181550Z AUTO 10007KT 070V130 8000 BR OVC005/// 10/09 Q1006
  • 181520Z AUTO 10007KT 070V130 8000 -SHRA BR OVC006/// 10/09 Q1006

Prévision TAF périmée.



MET'MAP, la Météo Aéronautique d'un coup d'oeil ! - Copyright ORBIFLY Décembre 2007 - Disclaimer

ORBIFLY MET'MAP TEAM :

Programmation & Développement : Alexandra Zaïnal
Conception & Développement : Baudouin d'Aumeries
Co-Programmation & Développement : Marc-Olivier Méhu
Soutien technique & logistique : Manuel Goepfert

Contact : metmap@orbifly.com




SOURCES & CREDITS :

   NOAA